Jansen, Canada
Current Conditions -  °F | °C
As of 11:00 AM on Friday 28 Nov 2014 (Local Time) from CYXE Reporting Station
Moderate Snow Moderate Snow  
Wind Chill: -16°   Ceiling: 500
Heat Index:   Visibility: 0.5mi
Dew Point:   Wind: 16mph
Humidity: 85%   Direction: 80°E
Pressure: 29.7"   Gusts: 22mph
Location:  51.78°N, 104.72°W
Report Text: CYXE 281700Z 08014G19KT 1/2SM R09/5000FT/U SN DRSN VV005 M16/M18 A2970 RMK SN8 SLP103
Loading
Personal Weather Stations






























Interactive Weather Map New forecast layout! Learn more

10-Day Weather Forecast

Advertisements
Track Severe Weather on mobile